sensor_id;sensor_type;location;lat;lon;timestamp;pressure;altitude;pressure_sealevel;temperature;humidity
51468;BME280;37545;45.302;-122.946;2023-07-29T00:02:12;100875.91;;;32.94;19.21
51468;BME280;37545;45.302;-122.946;2023-07-29T00:04:40;100880.41;;;32.93;20.05
51468;BME280;37545;45.302;-122.946;2023-07-29T00:07:09;100882.78;;;32.98;20.97
51468;BME280;37545;45.302;-122.946;2023-07-29T00:09:38;100880.69;;;33.03;21.35
51468;BME280;37545;45.302;-122.946;2023-07-29T00:12:06;100876.13;;;33.05;21.85
51468;BME280;37545;45.302;-122.946;2023-07-29T00:14:35;100880.53;;;33.06;21.50
51468;BME280;37545;45.302;-122.946;2023-07-29T00:17:06;100875.31;;;33.03;21.89
51468;BME280;37545;45.302;-122.946;2023-07-29T00:19:34;100873.44;;;33.05;21.77
51468;BME280;37545;45.302;-122.946;2023-07-29T00:22:03;100870.66;;;33.07;21.88
51468;BME280;37545;45.302;-122.946;2023-07-29T00:24:32;100876.88;;;33.07;22.68
51468;BME280;37545;45.302;-122.946;2023-07-29T00:27:00;100871.69;;;33.04;22.89
51468;BME280;37545;45.302;-122.946;2023-07-29T00:29:29;100865.38;;;32.91;22.58
51468;BME280;37545;45.302;-122.946;2023-07-29T00:31:58;100864.25;;;32.81;22.71
51468;BME280;37545;45.302;-122.946;2023-07-29T00:34:28;100865.19;;;32.80;23.47
51468;BME280;37545;45.302;-122.946;2023-07-29T00:36:57;100859.81;;;32.80;23.56
51468;BME280;37545;45.302;-122.946;2023-07-29T00:39:25;100859.25;;;32.74;23.99
51468;BME280;37545;45.302;-122.946;2023-07-29T00:41:54;100861.53;;;32.66;23.90
51468;BME280;37545;45.302;-122.946;2023-07-29T00:44:23;100859.06;;;32.63;23.37
51468;BME280;37545;45.302;-122.946;2023-07-29T00:46:52;100858.28;;;32.61;23.62
51468;BME280;37545;45.302;-122.946;2023-07-29T00:49:21;100858.28;;;32.61;24.22
51468;BME280;37545;45.302;-122.946;2023-07-29T00:51:54;100857.72;;;32.56;24.10
51468;BME280;37545;45.302;-122.946;2023-07-29T00:54:23;100857.75;;;32.40;23.87
51468;BME280;37545;45.302;-122.946;2023-07-29T00:56:52;100853.22;;;32.26;23.90
51468;BME280;37545;45.302;-122.946;2023-07-29T00:59:20;100852.78;;;32.04;24.79
51468;BME280;37545;45.302;-122.946;2023-07-29T01:01:49;100846.75;;;31.84;24.55
51468;BME280;37545;45.302;-122.946;2023-07-29T01:04:18;100853.84;;;31.69;25.25
51468;BME280;37545;45.302;-122.946;2023-07-29T01:06:53;100860.22;;;31.67;25.32
51468;BME280;37545;45.302;-122.946;2023-07-29T01:09:30;100857.75;;;31.64;24.87
51468;BME280;37545;45.302;-122.946;2023-07-29T01:12:06;100861.47;;;31.45;25.39
51468;BME280;37545;45.302;-122.946;2023-07-29T01:14:41;100865.72;;;31.32;25.41
51468;BME280;37545;45.302;-122.946;2023-07-29T01:17:19;100857.50;;;31.19;25.74
51468;BME280;37545;45.302;-122.946;2023-07-29T01:19:59;100853.09;;;31.02;26.18
51468;BME280;37545;45.302;-122.946;2023-07-29T01:22:34;100853.75;;;30.90;26.45
51468;BME280;37545;45.302;-122.946;2023-07-29T01:25:04;100854.47;;;30.76;26.14
51468;BME280;37545;45.302;-122.946;2023-07-29T01:27:33;100850.31;;;30.71;26.08
51468;BME280;37545;45.302;-122.946;2023-07-29T01:30:02;100846.94;;;30.67;26.70
51468;BME280;37545;45.302;-122.946;2023-07-29T01:32:37;100845.22;;;30.66;26.54
51468;BME280;37545;45.302;-122.946;2023-07-29T01:35:15;100842.81;;;30.61;27.18
51468;BME280;37545;45.302;-122.946;2023-07-29T01:37:51;100850.75;;;30.63;27.64
51468;BME280;37545;45.302;-122.946;2023-07-29T01:40:22;100850.63;;;30.64;27.28
51468;BME280;37545;45.302;-122.946;2023-07-29T01:42:50;100852.22;;;30.68;27.25
51468;BME280;37545;45.302;-122.946;2023-07-29T01:45:20;100847.41;;;30.75;26.95
51468;BME280;37545;45.302;-122.946;2023-07-29T01:47:51;100851.53;;;30.81;27.30
51468;BME280;37545;45.302;-122.946;2023-07-29T01:50:22;100857.13;;;30.76;27.77
51468;BME280;37545;45.302;-122.946;2023-07-29T01:52:51;100857.97;;;30.61;27.47
51468;BME280;37545;45.302;-122.946;2023-07-29T01:55:21;100855.38;;;30.42;27.62
51468;BME280;37545;45.302;-122.946;2023-07-29T01:57:50;100859.75;;;30.25;28.12
51468;BME280;37545;45.302;-122.946;2023-07-29T02:00:21;100858.97;;;30.06;28.96
51468;BME280;37545;45.302;-122.946;2023-07-29T02:02:50;100864.22;;;29.90;28.94
51468;BME280;37545;45.302;-122.946;2023-07-29T02:05:18;100863.16;;;29.75;29.51
51468;BME280;37545;45.302;-122.946;2023-07-29T02:07:47;100869.06;;;29.63;30.70
51468;BME280;37545;45.302;-122.946;2023-07-29T02:10:16;100866.19;;;29.49;31.54
51468;BME280;37545;45.302;-122.946;2023-07-29T02:12:50;100868.63;;;29.34;31.93
51468;BME280;37545;45.302;-122.946;2023-07-29T02:15:18;100871.09;;;29.20;32.24
51468;BME280;37545;45.302;-122.946;2023-07-29T02:17:50;100869.00;;;29.08;32.73
51468;BME280;37545;45.302;-122.946;2023-07-29T02:20:19;100869.44;;;28.97;32.67
51468;BME280;37545;45.302;-122.946;2023-07-29T02:22:48;100873.69;;;28.82;32.04
51468;BME280;37545;45.302;-122.946;2023-07-29T02:25:17;100862.00;;;28.66;32.11
51468;BME280;37545;45.302;-122.946;2023-07-29T02:27:47;100866.78;;;28.57;32.55
51468;BME280;37545;45.302;-122.946;2023-07-29T02:30:16;100881.13;;;28.53;32.49
51468;BME280;37545;45.302;-122.946;2023-07-29T02:32:44;100874.22;;;28.49;32.62
51468;BME280;37545;45.302;-122.946;2023-07-29T02:35:16;100872.84;;;28.39;32.67
51468;BME280;37545;45.302;-122.946;2023-07-29T02:37:45;100879.38;;;28.32;33.55
51468;BME280;37545;45.302;-122.946;2023-07-29T02:40:13;100874.38;;;28.24;34.10
51468;BME280;37545;45.302;-122.946;2023-07-29T02:42:42;100881.22;;;28.09;33.05
51468;BME280;37545;45.302;-122.946;2023-07-29T02:45:12;100883.44;;;27.98;34.60
51468;BME280;37545;45.302;-122.946;2023-07-29T02:47:41;100873.31;;;27.86;34.01
51468;BME280;37545;45.302;-122.946;2023-07-29T02:50:09;100866.59;;;27.75;34.23
51468;BME280;37545;45.302;-122.946;2023-07-29T02:52:38;100882.41;;;27.78;35.23
51468;BME280;37545;45.302;-122.946;2023-07-29T02:55:07;100880.88;;;27.73;34.39
51468;BME280;37545;45.302;-122.946;2023-07-29T02:57:39;100899.00;;;27.63;36.00
51468;BME280;37545;45.302;-122.946;2023-07-29T03:00:08;100897.72;;;27.50;35.38
51468;BME280;37545;45.302;-122.946;2023-07-29T03:02:39;100893.53;;;27.44;34.71
51468;BME280;37545;45.302;-122.946;2023-07-29T03:05:08;100892.91;;;27.38;35.12
51468;BME280;37545;45.302;-122.946;2023-07-29T03:07:42;100902.72;;;27.35;35.14
51468;BME280;37545;45.302;-122.946;2023-07-29T03:10:11;100901.78;;;27.36;36.74
51468;BME280;37545;45.302;-122.946;2023-07-29T03:12:41;100903.63;;;27.34;36.82
51468;BME280;37545;45.302;-122.946;2023-07-29T03:15:10;100902.91;;;27.31;36.97
51468;BME280;37545;45.302;-122.946;2023-07-29T03:17:40;100909.97;;;27.30;35.59
51468;BME280;37545;45.302;-122.946;2023-07-29T03:20:09;100907.41;;;27.29;36.82
51468;BME280;37545;45.302;-122.946;2023-07-29T03:22:38;100911.03;;;27.26;37.02
51468;BME280;37545;45.302;-122.946;2023-07-29T03:25:07;100918.19;;;27.24;36.74
51468;BME280;37545;45.302;-122.946;2023-07-29T03:27:36;100917.44;;;27.21;37.11
51468;BME280;37545;45.302;-122.946;2023-07-29T03:30:06;100922.78;;;27.19;36.13
51468;BME280;37545;45.302;-122.946;2023-07-29T03:32:35;100928.19;;;27.16;37.73
51468;BME280;37545;45.302;-122.946;2023-07-29T03:35:06;100932.81;;;27.11;37.44
51468;BME280;37545;45.302;-122.946;2023-07-29T03:37:35;100932.94;;;27.08;37.06
51468;BME280;37545;45.302;-122.946;2023-07-29T03:40:04;100943.72;;;27.03;37.02
51468;BME280;37545;45.302;-122.946;2023-07-29T03:42:33;100947.44;;;26.98;36.74
51468;BME280;37545;45.302;-122.946;2023-07-29T03:45:02;100947.66;;;26.91;36.81
51468;BME280;37545;45.302;-122.946;2023-07-29T03:47:31;100951.56;;;26.81;37.49
51468;BME280;37545;45.302;-122.946;2023-07-29T03:50:00;100952.75;;;26.72;37.20
51468;BME280;37545;45.302;-122.946;2023-07-29T03:52:30;100959.97;;;26.69;37.05
51468;BME280;37545;45.302;-122.946;2023-07-29T03:55:00;100964.66;;;26.61;37.45
51468;BME280;37545;45.302;-122.946;2023-07-29T03:57:29;100971.09;;;26.52;37.22
51468;BME280;37545;45.302;-122.946;2023-07-29T03:59:58;100967.84;;;26.44;37.12
51468;BME280;37545;45.302;-122.946;2023-07-29T04:02:26;100979.53;;;26.38;37.38
51468;BME280;37545;45.302;-122.946;2023-07-29T04:04:55;100978.03;;;26.29;37.72
51468;BME280;37545;45.302;-122.946;2023-07-29T04:07:24;100987.19;;;26.21;37.58
51468;BME280;37545;45.302;-122.946;2023-07-29T04:09:54;100982.25;;;26.08;37.35
51468;BME280;37545;45.302;-122.946;2023-07-29T04:12:23;100993.13;;;25.99;38.24
51468;BME280;37545;45.302;-122.946;2023-07-29T04:14:51;100986.41;;;25.89;38.44
51468;BME280;37545;45.302;-122.946;2023-07-29T04:17:20;100988.50;;;25.76;39.70
51468;BME280;37545;45.302;-122.946;2023-07-29T04:19:49;100991.28;;;25.71;39.32
51468;BME280;37545;45.302;-122.946;2023-07-29T04:22:18;100995.97;;;25.63;39.85
51468;BME280;37545;45.302;-122.946;2023-07-29T04:24:46;101005.06;;;25.53;39.89
51468;BME280;37545;45.302;-122.946;2023-07-29T04:27:17;100997.53;;;25.39;39.91
51468;BME280;37545;45.302;-122.946;2023-07-29T04:29:45;101004.81;;;25.31;40.60
51468;BME280;37545;45.302;-122.946;2023-07-29T04:32:14;101003.22;;;25.25;39.63
51468;BME280;37545;45.302;-122.946;2023-07-29T04:34:42;101004.28;;;25.18;40.32
51468;BME280;37545;45.302;-122.946;2023-07-29T04:37:11;101005.34;;;25.11;40.02
51468;BME280;37545;45.302;-122.946;2023-07-29T04:39:40;101003.78;;;25.02;40.15
51468;BME280;37545;45.302;-122.946;2023-07-29T04:42:08;101007.56;;;24.92;39.92
51468;BME280;37545;45.302;-122.946;2023-07-29T04:44:38;101006.94;;;24.82;40.26
51468;BME280;37545;45.302;-122.946;2023-07-29T04:47:08;101008.94;;;24.74;40.66
51468;BME280;37545;45.302;-122.946;2023-07-29T04:49:37;101009.19;;;24.65;40.72
51468;BME280;37545;45.302;-122.946;2023-07-29T04:52:06;101012.06;;;24.54;41.03
51468;BME280;37545;45.302;-122.946;2023-07-29T04:54:35;101014.00;;;24.48;40.78
51468;BME280;37545;45.302;-122.946;2023-07-29T04:57:03;101016.75;;;24.41;41.16
51468;BME280;37545;45.302;-122.946;2023-07-29T04:59:32;101013.38;;;24.35;41.35
51468;BME280;37545;45.302;-122.946;2023-07-29T05:02:02;101011.00;;;24.24;41.31
51468;BME280;37545;45.302;-122.946;2023-07-29T05:04:31;101021.72;;;24.16;41.29
51468;BME280;37545;45.302;-122.946;2023-07-29T05:07:00;101017.59;;;24.04;41.75
51468;BME280;37545;45.302;-122.946;2023-07-29T05:09:29;101018.66;;;23.96;41.98
51468;BME280;37545;45.302;-122.946;2023-07-29T05:11:58;101014.50;;;23.84;42.43
51468;BME280;37545;45.302;-122.946;2023-07-29T05:14:26;101020.91;;;23.72;42.17
51468;BME280;37545;45.302;-122.946;2023-07-29T05:16:55;101017.47;;;23.69;42.30
51468;BME280;37545;45.302;-122.946;2023-07-29T05:19:25;101015.78;;;23.65;42.13
51468;BME280;37545;45.302;-122.946;2023-07-29T05:21:54;101002.75;;;23.55;42.32
51468;BME280;37545;45.302;-122.946;2023-07-29T05:24:22;101016.81;;;23.57;43.42
51468;BME280;37545;45.302;-122.946;2023-07-29T05:26:51;101022.22;;;23.51;43.33
51468;BME280;37545;45.302;-122.946;2023-07-29T05:29:19;101005.69;;;23.41;42.83
51468;BME280;37545;45.302;-122.946;2023-07-29T05:31:51;101018.03;;;23.39;43.04
51468;BME280;37545;45.302;-122.946;2023-07-29T05:34:20;101010.13;;;23.38;42.81
51468;BME280;37545;45.302;-122.946;2023-07-29T05:36:50;101019.94;;;23.33;43.12
51468;BME280;37545;45.302;-122.946;2023-07-29T05:39:19;101021.81;;;23.26;42.97
51468;BME280;37545;45.302;-122.946;2023-07-29T05:41:47;101020.97;;;23.23;43.37
51468;BME280;37545;45.302;-122.946;2023-07-29T05:44:16;101009.72;;;23.14;43.76
51468;BME280;37545;45.302;-122.946;2023-07-29T05:46:44;101014.16;;;23.12;44.00
51468;BME280;37545;45.302;-122.946;2023-07-29T05:49:13;101019.53;;;23.06;44.29
51468;BME280;37545;45.302;-122.946;2023-07-29T05:51:45;101021.38;;;23.01;43.73
51468;BME280;37545;45.302;-122.946;2023-07-29T05:54:17;101019.72;;;22.94;44.08
51468;BME280;37545;45.302;-122.946;2023-07-29T05:56:45;101028.66;;;22.87;45.16
51468;BME280;37545;45.302;-122.946;2023-07-29T05:59:13;101030.44;;;22.83;45.66
51468;BME280;37545;45.302;-122.946;2023-07-29T06:01:43;101036.72;;;22.77;46.12
51468;BME280;37545;45.302;-122.946;2023-07-29T06:04:14;101046.47;;;22.72;44.87
51468;BME280;37545;45.302;-122.946;2023-07-29T06:06:42;101041.22;;;22.71;44.63
51468;BME280;37545;45.302;-122.946;2023-07-29T06:09:11;101045.72;;;22.66;44.57
51468;BME280;37545;45.302;-122.946;2023-07-29T06:11:41;101051.94;;;22.60;44.71
51468;BME280;37545;45.302;-122.946;2023-07-29T06:14:09;101052.00;;;22.54;44.91
51468;BME280;37545;45.302;-122.946;2023-07-29T06:16:38;101053.91;;;22.46;45.20
51468;BME280;37545;45.302;-122.946;2023-07-29T06:19:07;101058.47;;;22.36;45.34
51468;BME280;37545;45.302;-122.946;2023-07-29T06:21:36;101057.75;;;22.25;46.49
51468;BME280;37545;45.302;-122.946;2023-07-29T06:24:05;101069.28;;;22.13;46.69
51468;BME280;37545;45.302;-122.946;2023-07-29T06:26:33;101072.88;;;22.06;46.30
51468;BME280;37545;45.302;-122.946;2023-07-29T06:29:05;101069.47;;;21.99;46.35
51468;BME280;37545;45.302;-122.946;2023-07-29T06:31:33;101071.31;;;21.89;47.77
51468;BME280;37545;45.302;-122.946;2023-07-29T06:34:02;101076.78;;;21.74;47.99
51468;BME280;37545;45.302;-122.946;2023-07-29T06:36:30;101071.69;;;21.59;48.17
51468;BME280;37545;45.302;-122.946;2023-07-29T06:39:01;101070.03;;;21.48;49.17
51468;BME280;37545;45.302;-122.946;2023-07-29T06:41:30;101075.34;;;21.39;48.81
51468;BME280;37545;45.302;-122.946;2023-07-29T06:43:58;101076.41;;;21.26;48.88
51468;BME280;37545;45.302;-122.946;2023-07-29T06:46:28;101072.94;;;21.19;49.00
51468;BME280;37545;45.302;-122.946;2023-07-29T06:48:57;101077.34;;;21.17;48.89
51468;BME280;37545;45.302;-122.946;2023-07-29T06:51:25;101080.03;;;21.12;49.42
51468;BME280;37545;45.302;-122.946;2023-07-29T06:53:55;101075.78;;;20.95;50.22
51468;BME280;37545;45.302;-122.946;2023-07-29T06:56:24;101083.78;;;20.82;49.94
51468;BME280;37545;45.302;-122.946;2023-07-29T06:58:52;101087.28;;;20.83;50.19
51468;BME280;37545;45.302;-122.946;2023-07-29T07:01:24;101084.66;;;20.80;50.77
51468;BME280;37545;45.302;-122.946;2023-07-29T07:03:56;101082.06;;;20.77;50.56
51468;BME280;37545;45.302;-122.946;2023-07-29T07:06:25;101081.22;;;20.70;51.33
51468;BME280;37545;45.302;-122.946;2023-07-29T07:08:53;101087.41;;;20.63;51.20
51468;BME280;37545;45.302;-122.946;2023-07-29T07:11:22;101077.78;;;20.56;52.12
51468;BME280;37545;45.302;-122.946;2023-07-29T07:13:50;101087.44;;;20.55;51.97
51468;BME280;37545;45.302;-122.946;2023-07-29T07:16:19;101084.81;;;20.54;52.27
51468;BME280;37545;45.302;-122.946;2023-07-29T07:18:48;101092.72;;;20.50;51.97
51468;BME280;37545;45.302;-122.946;2023-07-29T07:21:18;101098.00;;;20.46;51.82
51468;BME280;37545;45.302;-122.946;2023-07-29T07:23:48;101091.88;;;20.44;52.09
51468;BME280;37545;45.302;-122.946;2023-07-29T07:26:17;101098.03;;;20.40;52.15
51468;BME280;37545;45.302;-122.946;2023-07-29T07:28:46;101098.06;;;20.35;52.77
51468;BME280;37545;45.302;-122.946;2023-07-29T07:31:14;101110.34;;;20.30;52.67
51468;BME280;37545;45.302;-122.946;2023-07-29T07:33:43;101108.63;;;20.27;52.52
51468;BME280;37545;45.302;-122.946;2023-07-29T07:36:11;101093.78;;;20.13;53.08
51468;BME280;37545;45.302;-122.946;2023-07-29T07:38:44;101105.19;;;20.10;52.95
51468;BME280;37545;45.302;-122.946;2023-07-29T07:41:13;101115.69;;;20.08;52.99
51468;BME280;37545;45.302;-122.946;2023-07-29T07:43:41;101114.84;;;20.02;53.90
51468;BME280;37545;45.302;-122.946;2023-07-29T07:46:10;101116.63;;;19.95;53.75
51468;BME280;37545;45.302;-122.946;2023-07-29T07:48:39;101120.16;;;19.86;53.60
51468;BME280;37545;45.302;-122.946;2023-07-29T07:51:11;101121.03;;;19.82;53.39
51468;BME280;37545;45.302;-122.946;2023-07-29T07:53:41;101121.94;;;19.80;53.49
51468;BME280;37545;45.302;-122.946;2023-07-29T07:56:10;101124.53;;;19.78;53.56
51468;BME280;37545;45.302;-122.946;2023-07-29T07:58:38;101117.56;;;19.74;53.52
51468;BME280;37545;45.302;-122.946;2023-07-29T08:01:08;101122.81;;;19.68;53.73
51468;BME280;37545;45.302;-122.946;2023-07-29T08:03:37;101127.16;;;19.64;53.55
51468;BME280;37545;45.302;-122.946;2023-07-29T08:06:05;101130.69;;;19.63;53.74
51468;BME280;37545;45.302;-122.946;2023-07-29T08:08:34;101124.53;;;19.58;53.96
51468;BME280;37545;45.302;-122.946;2023-07-29T08:11:04;101125.44;;;19.56;53.92
51468;BME280;37545;45.302;-122.946;2023-07-29T08:13:35;101128.97;;;19.47;53.79
51468;BME280;37545;45.302;-122.946;2023-07-29T08:16:03;101135.97;;;19.43;54.54
51468;BME280;37545;45.302;-122.946;2023-07-29T08:18:32;101136.84;;;19.36;54.54
51468;BME280;37545;45.302;-122.946;2023-07-29T08:21:01;101131.59;;;19.30;54.28
51468;BME280;37545;45.302;-122.946;2023-07-29T08:23:34;101135.97;;;19.28;54.19
51468;BME280;37545;45.302;-122.946;2023-07-29T08:26:05;101150.81;;;19.26;53.65
51468;BME280;37545;45.302;-122.946;2023-07-29T08:28:35;101143.84;;;19.25;53.51
51468;BME280;37545;45.302;-122.946;2023-07-29T08:31:04;101144.69;;;19.24;53.53
51468;BME280;37545;45.302;-122.946;2023-07-29T08:33:33;101144.69;;;19.24;53.45
51468;BME280;37545;45.302;-122.946;2023-07-29T08:36:04;101153.47;;;19.24;53.47
51468;BME280;37545;45.302;-122.946;2023-07-29T08:38:33;101153.44;;;19.23;53.08
51468;BME280;37545;45.302;-122.946;2023-07-29T08:41:13;101156.97;;;19.22;53.50
51468;BME280;37545;45.302;-122.946;2023-07-29T08:43:47;101160.47;;;19.22;53.09
51468;BME280;37545;45.302;-122.946;2023-07-29T08:46:19;101160.44;;;19.21;53.44
51468;BME280;37545;45.302;-122.946;2023-07-29T08:48:48;101157.84;;;19.18;53.55
51468;BME280;37545;45.302;-122.946;2023-07-29T08:51:20;101159.56;;;19.16;53.28
51468;BME280;37545;45.302;-122.946;2023-07-29T08:53:50;101159.59;;;19.13;53.96
51468;BME280;37545;45.302;-122.946;2023-07-29T08:56:20;101156.94;;;19.10;54.07
51468;BME280;37545;45.302;-122.946;2023-07-29T08:58:49;101159.56;;;19.07;53.98
51468;BME280;37545;45.302;-122.946;2023-07-29T09:01:18;101167.44;;;19.02;54.50
51468;BME280;37545;45.302;-122.946;2023-07-29T09:03:46;101160.41;;;18.96;53.95
51468;BME280;37545;45.302;-122.946;2023-07-29T09:06:16;101162.16;;;18.90;54.58
51468;BME280;37545;45.302;-122.946;2023-07-29T09:08:46;101169.16;;;18.83;55.32
51468;BME280;37545;45.302;-122.946;2023-07-29T09:11:15;101170.03;;;18.79;55.33
51468;BME280;37545;45.302;-122.946;2023-07-29T09:13:48;101169.97;;;18.74;54.95
51468;BME280;37545;45.302;-122.946;2023-07-29T09:16:17;101170.81;;;18.70;54.89
51468;BME280;37545;45.302;-122.946;2023-07-29T09:18:48;101170.84;;;18.67;54.98
51468;BME280;37545;45.302;-122.946;2023-07-29T09:21:22;101169.94;;;18.67;54.83
51468;BME280;37545;45.302;-122.946;2023-07-29T09:23:51;101171.69;;;18.65;54.36
51468;BME280;37545;45.302;-122.946;2023-07-29T09:26:23;101169.06;;;18.63;55.38
51468;BME280;37545;45.302;-122.946;2023-07-29T09:28:54;101173.44;;;18.62;55.50
51468;BME280;37545;45.302;-122.946;2023-07-29T09:31:25;101163.81;;;18.58;56.23
51468;BME280;37545;45.302;-122.946;2023-07-29T09:33:57;101172.53;;;18.54;56.64
51468;BME280;37545;45.302;-122.946;2023-07-29T09:36:26;101182.13;;;18.52;56.25
51468;BME280;37545;45.302;-122.946;2023-07-29T09:38:55;101176.88;;;18.52;56.39
51468;BME280;37545;45.302;-122.946;2023-07-29T09:41:24;101183.00;;;18.50;56.16
51468;BME280;37545;45.302;-122.946;2023-07-29T09:43:59;101182.97;;;18.48;56.01
51468;BME280;37545;45.302;-122.946;2023-07-29T09:46:33;101182.97;;;18.43;55.93
51468;BME280;37545;45.302;-122.946;2023-07-29T09:49:03;101188.19;;;18.39;56.40
51468;BME280;37545;45.302;-122.946;2023-07-29T09:51:32;101185.56;;;18.36;55.75
51468;BME280;37545;45.302;-122.946;2023-07-29T09:54:05;101185.53;;;18.30;56.24
51468;BME280;37545;45.302;-122.946;2023-07-29T09:56:34;101183.78;;;18.26;55.98
51468;BME280;37545;45.302;-122.946;2023-07-29T09:59:10;101183.75;;;18.21;56.12
51468;BME280;37545;45.302;-122.946;2023-07-29T10:01:39;101186.34;;;18.15;56.86
51468;BME280;37545;45.302;-122.946;2023-07-29T10:04:15;101187.19;;;18.11;57.06
51468;BME280;37545;45.302;-122.946;2023-07-29T10:06:45;101194.13;;;18.04;57.27
51468;BME280;37545;45.302;-122.946;2023-07-29T10:09:14;101189.75;;;17.98;57.47
51468;BME280;37545;45.302;-122.946;2023-07-29T10:11:50;101187.97;;;17.91;57.71
51468;BME280;37545;45.302;-122.946;2023-07-29T10:14:21;101178.31;;;17.89;57.66
51468;BME280;37545;45.302;-122.946;2023-07-29T10:16:51;101182.66;;;17.84;57.56
51468;BME280;37545;45.302;-122.946;2023-07-29T10:19:20;101188.69;;;17.79;58.00
51468;BME280;37545;45.302;-122.946;2023-07-29T10:21:49;101189.53;;;17.74;58.80
51468;BME280;37545;45.302;-122.946;2023-07-29T10:24:19;101186.91;;;17.69;59.13
51468;BME280;37545;45.302;-122.946;2023-07-29T10:26:57;101190.34;;;17.68;59.99
51468;BME280;37545;45.302;-122.946;2023-07-29T10:29:31;101186.88;;;17.66;60.57
51468;BME280;37545;45.302;-122.946;2023-07-29T10:32:02;101191.25;;;17.67;60.95
51468;BME280;37545;45.302;-122.946;2023-07-29T10:34:32;101186.00;;;17.67;61.08
51468;BME280;37545;45.302;-122.946;2023-07-29T10:37:02;101188.63;;;17.67;60.91
51468;BME280;37545;45.302;-122.946;2023-07-29T10:39:38;101189.50;;;17.66;61.34
51468;BME280;37545;45.302;-122.946;2023-07-29T10:42:07;101191.19;;;17.61;61.40
51468;BME280;37545;45.302;-122.946;2023-07-29T10:44:53;101196.44;;;17.59;62.76
51468;BME280;37545;45.302;-122.946;2023-07-29T10:47:23;101195.44;;;17.50;63.55
51468;BME280;37545;45.302;-122.946;2023-07-29T10:49:54;101196.28;;;17.43;62.71
51468;BME280;37545;45.302;-122.946;2023-07-29T10:52:39;101199.75;;;17.40;63.19
51468;BME280;37545;45.302;-122.946;2023-07-29T10:55:25;101207.59;;;17.38;62.57
51468;BME280;37545;45.302;-122.946;2023-07-29T10:58:05;101208.41;;;17.36;62.99
51468;BME280;37545;45.302;-122.946;2023-07-29T11:00:35;101204.84;;;17.26;64.94
51468;BME280;37545;45.302;-122.946;2023-07-29T11:03:06;101214.31;;;17.12;68.09
51468;BME280;37545;45.302;-122.946;2023-07-29T11:05:49;101211.50;;;16.93;69.18
51468;BME280;37545;45.302;-122.946;2023-07-29T11:08:27;101219.09;;;16.76;70.34
51468;BME280;37545;45.302;-122.946;2023-07-29T11:11:03;101218.94;;;16.63;70.75
51468;BME280;37545;45.302;-122.946;2023-07-29T11:13:36;101220.69;;;16.61;71.58
51468;BME280;37545;45.302;-122.946;2023-07-29T11:16:06;101221.53;;;16.60;70.60
51468;BME280;37545;45.302;-122.946;2023-07-29T11:18:35;101220.69;;;16.61;70.49
51468;BME280;37545;45.302;-122.946;2023-07-29T11:21:04;101231.09;;;16.58;71.82
51468;BME280;37545;45.302;-122.946;2023-07-29T11:23:38;101225.84;;;16.54;71.90
51468;BME280;37545;45.302;-122.946;2023-07-29T11:26:07;101228.44;;;16.54;72.55
51468;BME280;37545;45.302;-122.946;2023-07-29T11:28:39;101225.81;;;16.53;71.29
51468;BME280;37545;45.302;-122.946;2023-07-29T11:31:12;101230.94;;;16.47;72.90
51468;BME280;37545;45.302;-122.946;2023-07-29T11:33:43;101225.53;;;16.33;74.57
51468;BME280;37545;45.302;-122.946;2023-07-29T11:36:18;101232.44;;;16.28;75.12
51468;BME280;37545;45.302;-122.946;2023-07-29T11:38:47;101219.25;;;16.19;74.03
51468;BME280;37545;45.302;-122.946;2023-07-29T11:41:19;101239.38;;;16.26;73.92
51468;BME280;37545;45.302;-122.946;2023-07-29T11:43:49;101233.31;;;16.27;74.01
51468;BME280;37545;45.302;-122.946;2023-07-29T11:46:23;101234.19;;;16.27;73.62
51468;BME280;37545;45.302;-122.946;2023-07-29T11:48:54;101237.66;;;16.26;74.32
51468;BME280;37545;45.302;-122.946;2023-07-29T11:51:23;101239.34;;;16.23;73.61
51468;BME280;37545;45.302;-122.946;2023-07-29T11:54:00;101238.47;;;16.22;73.81
51468;BME280;37545;45.302;-122.946;2023-07-29T11:56:29;101242.66;;;16.12;75.07
51468;BME280;37545;45.302;-122.946;2023-07-29T11:58:58;101246.94;;;16.06;75.41
51468;BME280;37545;45.302;-122.946;2023-07-29T12:01:41;101253.88;;;16.05;74.79
51468;BME280;37545;45.302;-122.946;2023-07-29T12:04:10;101259.97;;;16.04;74.07
51468;BME280;37545;45.302;-122.946;2023-07-29T12:06:39;101259.94;;;16.01;75.03
51468;BME280;37545;45.302;-122.946;2023-07-29T12:09:09;101259.94;;;16.01;74.97
51468;BME280;37545;45.302;-122.946;2023-07-29T12:11:37;101262.53;;;16.01;75.19
51468;BME280;37545;45.302;-122.946;2023-07-29T12:14:08;101263.41;;;16.02;75.01
51468;BME280;37545;45.302;-122.946;2023-07-29T12:16:43;101273.81;;;16.00;74.98
51468;BME280;37545;45.302;-122.946;2023-07-29T12:19:12;101265.06;;;15.97;75.94
51468;BME280;37545;45.302;-122.946;2023-07-29T12:21:42;101263.19;;;15.88;76.91
51468;BME280;37545;45.302;-122.946;2023-07-29T12:24:12;101272.69;;;15.84;76.97
51468;BME280;37545;45.302;-122.946;2023-07-29T12:26:41;101270.91;;;15.82;76.76
51468;BME280;37545;45.302;-122.946;2023-07-29T12:29:13;101274.38;;;15.81;77.70
51468;BME280;37545;45.302;-122.946;2023-07-29T12:31:43;101274.38;;;15.81;77.82
51468;BME280;37545;45.302;-122.946;2023-07-29T12:34:18;101271.66;;;15.75;79.22
51468;BME280;37545;45.302;-122.946;2023-07-29T12:36:48;101273.28;;;15.69;78.78